sensor_id;sensor_type;location;lat;lon;timestamp;P1;durP1;ratioP1;P2;durP2;ratioP2
46000;SDS011;72226;48.272;11.180;2023-10-19T00:01:20;27.92;;;20.05;;
46000;SDS011;72226;48.272;11.180;2023-10-19T00:03:48;19.88;;;16.75;;
46000;SDS011;72226;48.272;11.180;2023-10-19T00:06:14;24.85;;;19.00;;
46000;SDS011;72226;48.272;11.180;2023-10-19T00:08:40;31.65;;;20.45;;
46000;SDS011;72226;48.272;11.180;2023-10-19T00:11:11;30.20;;;20.63;;
46000;SDS011;72226;48.272;11.180;2023-10-19T00:13:47;25.20;;;20.50;;
46000;SDS011;72226;48.272;11.180;2023-10-19T00:16:18;32.33;;;23.88;;
46000;SDS011;72226;48.272;11.180;2023-10-19T00:18:47;35.78;;;26.63;;
46000;SDS011;72226;48.272;11.180;2023-10-19T00:21:13;32.45;;;24.20;;
46000;SDS011;72226;48.272;11.180;2023-10-19T00:23:49;38.08;;;25.92;;
46000;SDS011;72226;48.272;11.180;2023-10-19T00:26:20;37.00;;;26.05;;
46000;SDS011;72226;48.272;11.180;2023-10-19T00:28:46;34.35;;;24.23;;
46000;SDS011;72226;48.272;11.180;2023-10-19T00:31:14;36.70;;;25.80;;
46000;SDS011;72226;48.272;11.180;2023-10-19T00:33:40;36.10;;;26.42;;
46000;SDS011;72226;48.272;11.180;2023-10-19T00:36:08;35.70;;;25.13;;
46000;SDS011;72226;48.272;11.180;2023-10-19T00:38:38;37.72;;;27.92;;
46000;SDS011;72226;48.272;11.180;2023-10-19T00:41:05;38.72;;;26.73;;
46000;SDS011;72226;48.272;11.180;2023-10-19T00:43:34;39.95;;;27.08;;
46000;SDS011;72226;48.272;11.180;2023-10-19T00:46:11;32.92;;;24.15;;
46000;SDS011;72226;48.272;11.180;2023-10-19T00:48:44;34.00;;;25.67;;
46000;SDS011;72226;48.272;11.180;2023-10-19T00:51:12;36.40;;;25.00;;
46000;SDS011;72226;48.272;11.180;2023-10-19T00:53:53;34.85;;;26.33;;
46000;SDS011;72226;48.272;11.180;2023-10-19T00:56:20;33.03;;;25.55;;
46000;SDS011;72226;48.272;11.180;2023-10-19T00:58:48;31.63;;;23.02;;
46000;SDS011;72226;48.272;11.180;2023-10-19T01:01:19;32.58;;;25.13;;
46000;SDS011;72226;48.272;11.180;2023-10-19T01:03:49;30.00;;;24.40;;
46000;SDS011;72226;48.272;11.180;2023-10-19T01:06:17;35.72;;;26.65;;
46000;SDS011;72226;48.272;11.180;2023-10-19T01:08:45;30.77;;;22.67;;
46000;SDS011;72226;48.272;11.180;2023-10-19T01:11:11;31.73;;;20.67;;
46000;SDS011;72226;48.272;11.180;2023-10-19T01:13:40;28.42;;;21.05;;
46000;SDS011;72226;48.272;11.180;2023-10-19T01:16:13;27.33;;;22.08;;
46000;SDS011;72226;48.272;11.180;2023-10-19T01:18:49;31.55;;;22.38;;
46000;SDS011;72226;48.272;11.180;2023-10-19T01:21:19;28.63;;;20.88;;
46000;SDS011;72226;48.272;11.180;2023-10-19T01:23:52;26.75;;;21.48;;
46000;SDS011;72226;48.272;11.180;2023-10-19T01:26:18;25.88;;;19.65;;
46000;SDS011;72226;48.272;11.180;2023-10-19T01:28:47;29.30;;;22.50;;
46000;SDS011;72226;48.272;11.180;2023-10-19T01:31:16;22.75;;;19.58;;
46000;SDS011;72226;48.272;11.180;2023-10-19T01:33:55;31.77;;;22.70;;
46000;SDS011;72226;48.272;11.180;2023-10-19T01:36:31;32.65;;;22.30;;
46000;SDS011;72226;48.272;11.180;2023-10-19T01:39:07;26.13;;;21.60;;
46000;SDS011;72226;48.272;11.180;2023-10-19T01:41:36;28.02;;;20.88;;
46000;SDS011;72226;48.272;11.180;2023-10-19T01:44:02;37.63;;;25.02;;
46000;SDS011;72226;48.272;11.180;2023-10-19T01:46:31;28.42;;;22.75;;
46000;SDS011;72226;48.272;11.180;2023-10-19T01:49:01;32.22;;;24.63;;
46000;SDS011;72226;48.272;11.180;2023-10-19T01:51:29;35.00;;;24.35;;
46000;SDS011;72226;48.272;11.180;2023-10-19T01:54:09;26.48;;;22.73;;
46000;SDS011;72226;48.272;11.180;2023-10-19T01:56:35;29.58;;;23.08;;
46000;SDS011;72226;48.272;11.180;2023-10-19T01:59:01;33.20;;;24.10;;
46000;SDS011;72226;48.272;11.180;2023-10-19T02:01:29;27.73;;;21.10;;
46000;SDS011;72226;48.272;11.180;2023-10-19T02:03:55;33.70;;;23.45;;
46000;SDS011;72226;48.272;11.180;2023-10-19T02:06:24;30.05;;;22.75;;
46000;SDS011;72226;48.272;11.180;2023-10-19T02:09:00;33.78;;;23.17;;
46000;SDS011;72226;48.272;11.180;2023-10-19T02:11:46;33.05;;;25.65;;
46000;SDS011;72226;48.272;11.180;2023-10-19T02:14:13;32.95;;;21.80;;
46000;SDS011;72226;48.272;11.180;2023-10-19T02:16:43;27.95;;;21.48;;
46000;SDS011;72226;48.272;11.180;2023-10-19T02:19:17;32.33;;;23.30;;
46000;SDS011;72226;48.272;11.180;2023-10-19T02:21:43;26.70;;;21.77;;
46000;SDS011;72226;48.272;11.180;2023-10-19T02:24:12;27.25;;;20.95;;
46000;SDS011;72226;48.272;11.180;2023-10-19T02:26:39;28.13;;;21.75;;
46000;SDS011;72226;48.272;11.180;2023-10-19T02:29:05;25.52;;;21.38;;
46000;SDS011;72226;48.272;11.180;2023-10-19T02:31:35;26.80;;;20.67;;
46000;SDS011;72226;48.272;11.180;2023-10-19T02:34:05;36.70;;;23.10;;
46000;SDS011;72226;48.272;11.180;2023-10-19T02:36:32;28.90;;;21.15;;
46000;SDS011;72226;48.272;11.180;2023-10-19T02:39:02;28.27;;;21.83;;
46000;SDS011;72226;48.272;11.180;2023-10-19T02:41:41;23.63;;;17.92;;
46000;SDS011;72226;48.272;11.180;2023-10-19T02:44:12;29.58;;;21.25;;
46000;SDS011;72226;48.272;11.180;2023-10-19T02:46:42;24.65;;;19.98;;
46000;SDS011;72226;48.272;11.180;2023-10-19T02:49:08;30.77;;;21.55;;
46000;SDS011;72226;48.272;11.180;2023-10-19T02:51:37;26.88;;;19.92;;
46000;SDS011;72226;48.272;11.180;2023-10-19T02:54:03;24.60;;;18.52;;
46000;SDS011;72226;48.272;11.180;2023-10-19T02:56:30;25.45;;;18.90;;
46000;SDS011;72226;48.272;11.180;2023-10-19T02:58:56;25.40;;;19.88;;
46000;SDS011;72226;48.272;11.180;2023-10-19T03:01:27;22.50;;;18.42;;
46000;SDS011;72226;48.272;11.180;2023-10-19T03:03:59;23.07;;;18.93;;
46000;SDS011;72226;48.272;11.180;2023-10-19T03:06:26;25.02;;;19.02;;
46000;SDS011;72226;48.272;11.180;2023-10-19T03:11:29;22.33;;;18.20;;
46000;SDS011;72226;48.272;11.180;2023-10-19T03:13:55;22.67;;;17.98;;
46000;SDS011;72226;48.272;11.180;2023-10-19T03:16:22;28.05;;;17.35;;
46000;SDS011;72226;48.272;11.180;2023-10-19T03:18:49;24.63;;;17.05;;
46000;SDS011;72226;48.272;11.180;2023-10-19T03:21:16;22.02;;;16.80;;
46000;SDS011;72226;48.272;11.180;2023-10-19T03:23:41;20.33;;;16.75;;
46000;SDS011;72226;48.272;11.180;2023-10-19T03:26:07;24.83;;;19.02;;
46000;SDS011;72226;48.272;11.180;2023-10-19T03:28:51;18.95;;;16.33;;
46000;SDS011;72226;48.272;11.180;2023-10-19T03:31:39;16.98;;;15.10;;
46000;SDS011;72226;48.272;11.180;2023-10-19T03:34:12;18.05;;;15.05;;
46000;SDS011;72226;48.272;11.180;2023-10-19T03:36:38;19.63;;;16.98;;
46000;SDS011;72226;48.272;11.180;2023-10-19T03:39:05;23.77;;;18.20;;
46000;SDS011;72226;48.272;11.180;2023-10-19T03:41:39;21.10;;;16.02;;
46000;SDS011;72226;48.272;11.180;2023-10-19T03:44:12;19.90;;;16.70;;
46000;SDS011;72226;48.272;11.180;2023-10-19T03:46:52;21.17;;;15.60;;
46000;SDS011;72226;48.272;11.180;2023-10-19T03:49:21;18.52;;;15.20;;
46000;SDS011;72226;48.272;11.180;2023-10-19T03:51:47;17.52;;;15.73;;
46000;SDS011;72226;48.272;11.180;2023-10-19T03:54:28;20.08;;;17.92;;
46000;SDS011;72226;48.272;11.180;2023-10-19T03:56:54;25.65;;;18.48;;
46000;SDS011;72226;48.272;11.180;2023-10-19T03:59:22;18.35;;;16.42;;
46000;SDS011;72226;48.272;11.180;2023-10-19T04:01:56;19.40;;;16.27;;
46000;SDS011;72226;48.272;11.180;2023-10-19T04:04:22;18.60;;;15.43;;
46000;SDS011;72226;48.272;11.180;2023-10-19T04:06:48;20.50;;;16.70;;
46000;SDS011;72226;48.272;11.180;2023-10-19T04:09:14;17.58;;;14.68;;
46000;SDS011;72226;48.272;11.180;2023-10-19T04:11:43;16.73;;;14.15;;
46000;SDS011;72226;48.272;11.180;2023-10-19T04:14:15;17.20;;;14.30;;
46000;SDS011;72226;48.272;11.180;2023-10-19T04:16:41;16.85;;;14.90;;
46000;SDS011;72226;48.272;11.180;2023-10-19T04:19:10;16.90;;;14.80;;
46000;SDS011;72226;48.272;11.180;2023-10-19T04:21:36;17.10;;;15.00;;
46000;SDS011;72226;48.272;11.180;2023-10-19T04:24:05;17.42;;;13.85;;
46000;SDS011;72226;48.272;11.180;2023-10-19T04:26:32;17.30;;;12.70;;
46000;SDS011;72226;48.272;11.180;2023-10-19T04:29:02;14.07;;;12.38;;
46000;SDS011;72226;48.272;11.180;2023-10-19T04:31:38;16.70;;;14.05;;
46000;SDS011;72226;48.272;11.180;2023-10-19T04:34:14;14.13;;;12.63;;
46000;SDS011;72226;48.272;11.180;2023-10-19T04:36:41;17.00;;;13.25;;
46000;SDS011;72226;48.272;11.180;2023-10-19T04:39:08;16.35;;;13.38;;
46000;SDS011;72226;48.272;11.180;2023-10-19T04:41:37;16.42;;;13.23;;
46000;SDS011;72226;48.272;11.180;2023-10-19T04:44:02;15.68;;;12.85;;
46000;SDS011;72226;48.272;11.180;2023-10-19T04:46:28;14.60;;;13.07;;
46000;SDS011;72226;48.272;11.180;2023-10-19T04:48:54;14.60;;;13.10;;
46000;SDS011;72226;48.272;11.180;2023-10-19T04:51:19;15.50;;;12.73;;
46000;SDS011;72226;48.272;11.180;2023-10-19T04:53:45;13.90;;;11.85;;
46000;SDS011;72226;48.272;11.180;2023-10-19T04:56:10;14.75;;;12.80;;
46000;SDS011;72226;48.272;11.180;2023-10-19T04:58:37;14.70;;;12.45;;
46000;SDS011;72226;48.272;11.180;2023-10-19T05:01:03;16.80;;;15.00;;
46000;SDS011;72226;48.272;11.180;2023-10-19T05:03:29;15.68;;;13.07;;
46000;SDS011;72226;48.272;11.180;2023-10-19T05:05:55;18.27;;;14.55;;
46000;SDS011;72226;48.272;11.180;2023-10-19T05:08:21;15.23;;;13.73;;
46000;SDS011;72226;48.272;11.180;2023-10-19T05:10:54;20.30;;;13.65;;
46000;SDS011;72226;48.272;11.180;2023-10-19T05:13:20;16.00;;;13.00;;
46000;SDS011;72226;48.272;11.180;2023-10-19T05:15:50;20.60;;;11.85;;
46000;SDS011;72226;48.272;11.180;2023-10-19T05:18:18;13.35;;;11.98;;
46000;SDS011;72226;48.272;11.180;2023-10-19T05:20:43;15.32;;;12.88;;
46000;SDS011;72226;48.272;11.180;2023-10-19T05:23:08;14.10;;;11.88;;
46000;SDS011;72226;48.272;11.180;2023-10-19T05:25:35;13.82;;;12.25;;
46000;SDS011;72226;48.272;11.180;2023-10-19T05:28:04;13.63;;;11.40;;
46000;SDS011;72226;48.272;11.180;2023-10-19T05:30:30;14.18;;;11.93;;
46000;SDS011;72226;48.272;11.180;2023-10-19T05:32:57;15.20;;;13.20;;
46000;SDS011;72226;48.272;11.180;2023-10-19T05:35:22;15.13;;;13.10;;
46000;SDS011;72226;48.272;11.180;2023-10-19T05:37:51;13.07;;;10.90;;
46000;SDS011;72226;48.272;11.180;2023-10-19T05:40:17;12.65;;;11.45;;
46000;SDS011;72226;48.272;11.180;2023-10-19T05:42:44;13.15;;;11.57;;
46000;SDS011;72226;48.272;11.180;2023-10-19T05:45:09;17.00;;;11.52;;
46000;SDS011;72226;48.272;11.180;2023-10-19T05:47:38;13.93;;;10.60;;
46000;SDS011;72226;48.272;11.180;2023-10-19T05:50:03;14.85;;;11.70;;
46000;SDS011;72226;48.272;11.180;2023-10-19T05:52:29;12.13;;;10.88;;
46000;SDS011;72226;48.272;11.180;2023-10-19T05:54:55;16.65;;;12.00;;
46000;SDS011;72226;48.272;11.180;2023-10-19T05:57:20;11.75;;;10.55;;
46000;SDS011;72226;48.272;11.180;2023-10-19T05:59:47;12.68;;;11.38;;
46000;SDS011;72226;48.272;11.180;2023-10-19T06:02:13;12.32;;;11.10;;
46000;SDS011;72226;48.272;11.180;2023-10-19T06:04:38;11.07;;;9.85;;
46000;SDS011;72226;48.272;11.180;2023-10-19T06:07:03;13.60;;;10.50;;
46000;SDS011;72226;48.272;11.180;2023-10-19T06:09:29;11.35;;;10.18;;
46000;SDS011;72226;48.272;11.180;2023-10-19T06:11:55;12.15;;;10.10;;
46000;SDS011;72226;48.272;11.180;2023-10-19T06:14:20;12.77;;;11.48;;
46000;SDS011;72226;48.272;11.180;2023-10-19T06:16:46;12.07;;;10.98;;
46000;SDS011;72226;48.272;11.180;2023-10-19T06:19:11;12.48;;;11.20;;
46000;SDS011;72226;48.272;11.180;2023-10-19T06:21:36;13.68;;;11.43;;
46000;SDS011;72226;48.272;11.180;2023-10-19T06:24:02;11.77;;;10.57;;
46000;SDS011;72226;48.272;11.180;2023-10-19T06:26:28;11.63;;;10.43;;
46000;SDS011;72226;48.272;11.180;2023-10-19T06:28:54;10.50;;;9.45;;
46000;SDS011;72226;48.272;11.180;2023-10-19T06:31:24;13.43;;;10.23;;
46000;SDS011;72226;48.272;11.180;2023-10-19T06:33:50;14.70;;;11.55;;
46000;SDS011;72226;48.272;11.180;2023-10-19T06:36:15;13.20;;;10.63;;
46000;SDS011;72226;48.272;11.180;2023-10-19T06:38:41;16.02;;;11.30;;
46000;SDS011;72226;48.272;11.180;2023-10-19T06:41:10;11.13;;;10.00;;
46000;SDS011;72226;48.272;11.180;2023-10-19T06:43:37;9.15;;;8.27;;
46000;SDS011;72226;48.272;11.180;2023-10-19T06:46:06;10.80;;;9.45;;
46000;SDS011;72226;48.272;11.180;2023-10-19T06:48:32;11.13;;;9.63;;
46000;SDS011;72226;48.272;11.180;2023-10-19T06:50:58;10.95;;;9.55;;
46000;SDS011;72226;48.272;11.180;2023-10-19T06:53:25;11.98;;;10.77;;
46000;SDS011;72226;48.272;11.180;2023-10-19T06:55:50;11.68;;;10.45;;
46000;SDS011;72226;48.272;11.180;2023-10-19T06:58:16;11.65;;;10.38;;
46000;SDS011;72226;48.272;11.180;2023-10-19T07:00:44;12.73;;;10.63;;
46000;SDS011;72226;48.272;11.180;2023-10-19T07:03:10;12.20;;;10.95;;
46000;SDS011;72226;48.272;11.180;2023-10-19T07:05:36;13.05;;;10.93;;
46000;SDS011;72226;48.272;11.180;2023-10-19T07:08:01;11.05;;;9.90;;
46000;SDS011;72226;48.272;11.180;2023-10-19T07:10:27;10.98;;;9.88;;
46000;SDS011;72226;48.272;11.180;2023-10-19T07:12:53;10.27;;;9.18;;
46000;SDS011;72226;48.272;11.180;2023-10-19T07:15:20;10.45;;;9.45;;
46000;SDS011;72226;48.272;11.180;2023-10-19T07:17:47;10.90;;;9.80;;
46000;SDS011;72226;48.272;11.180;2023-10-19T07:20:15;10.48;;;9.10;;
46000;SDS011;72226;48.272;11.180;2023-10-19T07:25:20;18.20;;;12.05;;
46000;SDS011;72226;48.272;11.180;2023-10-19T07:27:47;13.98;;;12.40;;
46000;SDS011;72226;48.272;11.180;2023-10-19T07:30:15;10.85;;;8.82;;
46000;SDS011;72226;48.272;11.180;2023-10-19T07:32:41;10.35;;;9.27;;
46000;SDS011;72226;48.272;11.180;2023-10-19T07:35:07;10.63;;;9.25;;
46000;SDS011;72226;48.272;11.180;2023-10-19T07:37:32;9.73;;;8.63;;
46000;SDS011;72226;48.272;11.180;2023-10-19T07:39:58;13.25;;;10.27;;
46000;SDS011;72226;48.272;11.180;2023-10-19T07:42:23;11.00;;;9.60;;
46000;SDS011;72226;48.272;11.180;2023-10-19T07:44:50;17.25;;;10.35;;
46000;SDS011;72226;48.272;11.180;2023-10-19T07:47:16;11.18;;;9.63;;
46000;SDS011;72226;48.272;11.180;2023-10-19T07:49:41;11.35;;;10.25;;
46000;SDS011;72226;48.272;11.180;2023-10-19T07:52:08;15.50;;;10.27;;
46000;SDS011;72226;48.272;11.180;2023-10-19T07:54:36;10.70;;;9.02;;
46000;SDS011;72226;48.272;11.180;2023-10-19T07:57:02;9.52;;;8.65;;
46000;SDS011;72226;48.272;11.180;2023-10-19T07:59:30;14.30;;;9.45;;
46000;SDS011;72226;48.272;11.180;2023-10-19T08:01:59;10.35;;;8.82;;
46000;SDS011;72226;48.272;11.180;2023-10-19T08:04:29;9.38;;;7.88;;
46000;SDS011;72226;48.272;11.180;2023-10-19T08:06:55;8.20;;;7.38;;
46000;SDS011;72226;48.272;11.180;2023-10-19T08:09:22;10.18;;;8.88;;
46000;SDS011;72226;48.272;11.180;2023-10-19T08:11:48;10.18;;;8.05;;
46000;SDS011;72226;48.272;11.180;2023-10-19T08:14:14;8.70;;;7.43;;
46000;SDS011;72226;48.272;11.180;2023-10-19T08:16:40;9.35;;;6.88;;
46000;SDS011;72226;48.272;11.180;2023-10-19T08:19:07;7.50;;;6.65;;
46000;SDS011;72226;48.272;11.180;2023-10-19T08:21:32;7.47;;;6.70;;
46000;SDS011;72226;48.272;11.180;2023-10-19T08:23:59;9.30;;;7.20;;
46000;SDS011;72226;48.272;11.180;2023-10-19T08:26:29;6.57;;;5.93;;
46000;SDS011;72226;48.272;11.180;2023-10-19T08:28:55;7.00;;;6.40;;
46000;SDS011;72226;48.272;11.180;2023-10-19T08:31:20;7.13;;;6.30;;
46000;SDS011;72226;48.272;11.180;2023-10-19T08:33:46;10.65;;;7.40;;
46000;SDS011;72226;48.272;11.180;2023-10-19T08:36:16;10.07;;;8.52;;
46000;SDS011;72226;48.272;11.180;2023-10-19T08:38:44;6.82;;;6.13;;
46000;SDS011;72226;48.272;11.180;2023-10-19T08:41:10;7.32;;;5.68;;
46000;SDS011;72226;48.272;11.180;2023-10-19T08:43:35;8.70;;;5.85;;
46000;SDS011;72226;48.272;11.180;2023-10-19T08:46:04;8.40;;;5.45;;
46000;SDS011;72226;48.272;11.180;2023-10-19T08:48:33;6.53;;;5.25;;
46000;SDS011;72226;48.272;11.180;2023-10-19T08:50:59;7.05;;;6.38;;
46000;SDS011;72226;48.272;11.180;2023-10-19T08:53:27;8.43;;;5.53;;
46000;SDS011;72226;48.272;11.180;2023-10-19T08:55:54;7.35;;;5.93;;
46000;SDS011;72226;48.272;11.180;2023-10-19T08:58:20;5.13;;;4.70;;
46000;SDS011;72226;48.272;11.180;2023-10-19T09:00:50;5.30;;;4.18;;
46000;SDS011;72226;48.272;11.180;2023-10-19T09:03:19;5.77;;;5.17;;
46000;SDS011;72226;48.272;11.180;2023-10-19T09:05:46;5.60;;;4.65;;
46000;SDS011;72226;48.272;11.180;2023-10-19T09:08:16;7.03;;;5.03;;
46000;SDS011;72226;48.272;11.180;2023-10-19T09:10:43;5.05;;;4.45;;
46000;SDS011;72226;48.272;11.180;2023-10-19T09:13:10;5.25;;;4.75;;
46000;SDS011;72226;48.272;11.180;2023-10-19T09:15:37;6.57;;;5.15;;
46000;SDS011;72226;48.272;11.180;2023-10-19T09:20:39;7.97;;;4.72;;
46000;SDS011;72226;48.272;11.180;2023-10-19T09:23:06;5.50;;;4.95;;
46000;SDS011;72226;48.272;11.180;2023-10-19T09:25:32;4.82;;;4.32;;
46000;SDS011;72226;48.272;11.180;2023-10-19T09:28:00;5.50;;;4.78;;
46000;SDS011;72226;48.272;11.180;2023-10-19T09:30:27;5.95;;;4.53;;
46000;SDS011;72226;48.272;11.180;2023-10-19T09:32:56;7.18;;;5.43;;
46000;SDS011;72226;48.272;11.180;2023-10-19T09:35:22;5.18;;;4.65;;
46000;SDS011;72226;48.272;11.180;2023-10-19T09:37:53;8.30;;;5.47;;
46000;SDS011;72226;48.272;11.180;2023-10-19T09:40:19;7.35;;;4.65;;
46000;SDS011;72226;48.272;11.180;2023-10-19T09:42:46;7.75;;;3.90;;
46000;SDS011;72226;48.272;11.180;2023-10-19T09:45:17;5.07;;;4.20;;
46000;SDS011;72226;48.272;11.180;2023-10-19T09:47:46;4.43;;;4.03;;
46000;SDS011;72226;48.272;11.180;2023-10-19T09:50:15;5.80;;;4.72;;
46000;SDS011;72226;48.272;11.180;2023-10-19T09:52:40;5.40;;;4.18;;
46000;SDS011;72226;48.272;11.180;2023-10-19T09:57:49;4.65;;;4.15;;
46000;SDS011;72226;48.272;11.180;2023-10-19T10:00:18;4.28;;;3.88;;
46000;SDS011;72226;48.272;11.180;2023-10-19T10:02:48;4.43;;;3.63;;
46000;SDS011;72226;48.272;11.180;2023-10-19T10:10:45;3.83;;;3.20;;
46000;SDS011;72226;48.272;11.180;2023-10-19T10:15:49;5.72;;;3.78;;
46000;SDS011;72226;48.272;11.180;2023-10-19T10:18:18;5.32;;;4.25;;
46000;SDS011;72226;48.272;11.180;2023-10-19T10:20:43;4.15;;;3.72;;
46000;SDS011;72226;48.272;11.180;2023-10-19T10:23:19;6.07;;;3.85;;
46000;SDS011;72226;48.272;11.180;2023-10-19T10:25:49;5.68;;;3.50;;
46000;SDS011;72226;48.272;11.180;2023-10-19T10:28:18;8.20;;;3.90;;
46000;SDS011;72226;48.272;11.180;2023-10-19T10:31:26;4.38;;;3.97;;
46000;SDS011;72226;48.272;11.180;2023-10-19T10:33:40;5.63;;;3.47;;
46000;SDS011;72226;48.272;11.180;2023-10-19T10:36:13;5.07;;;3.40;;
46000;SDS011;72226;48.272;11.180;2023-10-19T10:38:40;3.78;;;3.33;;
46000;SDS011;72226;48.272;11.180;2023-10-19T10:41:06;8.15;;;3.75;;
46000;SDS011;72226;48.272;11.180;2023-10-19T10:43:47;5.32;;;3.38;;
46000;SDS011;72226;48.272;11.180;2023-10-19T10:46:17;8.27;;;4.10;;
46000;SDS011;72226;48.272;11.180;2023-10-19T10:48:43;8.13;;;4.35;;
46000;SDS011;72226;48.272;11.180;2023-10-19T10:51:16;6.00;;;3.22;;
46000;SDS011;72226;48.272;11.180;2023-10-19T10:53:49;5.57;;;3.65;;
46000;SDS011;72226;48.272;11.180;2023-10-19T10:58:44;4.88;;;3.65;;
46000;SDS011;72226;48.272;11.180;2023-10-19T11:01:10;4.85;;;3.95;;
46000;SDS011;72226;48.272;11.180;2023-10-19T11:03:36;4.72;;;3.97;;
46000;SDS011;72226;48.272;11.180;2023-10-19T11:06:06;4.25;;;3.90;;
46000;SDS011;72226;48.272;11.180;2023-10-19T11:08:33;4.63;;;3.95;;
46000;SDS011;72226;48.272;11.180;2023-10-19T11:11:05;4.00;;;3.40;;
46000;SDS011;72226;48.272;11.180;2023-10-19T11:13:32;5.47;;;3.67;;
46000;SDS011;72226;48.272;11.180;2023-10-19T11:15:58;3.45;;;2.95;;
46000;SDS011;72226;48.272;11.180;2023-10-19T11:18:36;5.15;;;2.70;;
46000;SDS011;72226;48.272;11.180;2023-10-19T11:21:08;5.07;;;3.75;;
46000;SDS011;72226;48.272;11.180;2023-10-19T11:23:45;3.08;;;2.78;;
46000;SDS011;72226;48.272;11.180;2023-10-19T11:26:12;9.52;;;3.97;;
46000;SDS011;72226;48.272;11.180;2023-10-19T11:28:39;5.47;;;3.53;;
46000;SDS011;72226;48.272;11.180;2023-10-19T11:31:16;3.75;;;3.40;;
46000;SDS011;72226;48.272;11.180;2023-10-19T11:33:43;4.90;;;4.13;;
46000;SDS011;72226;48.272;11.180;2023-10-19T11:36:10;6.43;;;3.70;;
46000;SDS011;72226;48.272;11.180;2023-10-19T11:38:40;5.00;;;3.20;;
46000;SDS011;72226;48.272;11.180;2023-10-19T11:41:12;7.85;;;4.15;;
46000;SDS011;72226;48.272;11.180;2023-10-19T11:43:39;9.60;;;5.75;;
46000;SDS011;72226;48.272;11.180;2023-10-19T11:46:06;6.13;;;5.63;;
46000;SDS011;72226;48.272;11.180;2023-10-19T11:48:32;7.40;;;5.38;;
46000;SDS011;72226;48.272;11.180;2023-10-19T11:50:59;7.00;;;5.15;;
46000;SDS011;72226;48.272;11.180;2023-10-19T11:53:25;5.43;;;4.85;;
46000;SDS011;72226;48.272;11.180;2023-10-19T11:55:50;5.65;;;4.70;;
46000;SDS011;72226;48.272;11.180;2023-10-19T11:58:16;8.40;;;5.95;;
46000;SDS011;72226;48.272;11.180;2023-10-19T12:00:42;5.63;;;4.15;;
46000;SDS011;72226;48.272;11.180;2023-10-19T12:03:12;8.93;;;5.40;;
46000;SDS011;72226;48.272;11.180;2023-10-19T12:05:39;6.38;;;3.55;;
46000;SDS011;72226;48.272;11.180;2023-10-19T12:08:04;4.15;;;3.28;;
46000;SDS011;72226;48.272;11.180;2023-10-19T12:10:30;6.80;;;5.60;;
46000;SDS011;72226;48.272;11.180;2023-10-19T12:13:09;7.57;;;4.53;;
46000;SDS011;72226;48.272;11.180;2023-10-19T12:15:34;6.55;;;3.72;;
46000;SDS011;72226;48.272;11.180;2023-10-19T12:18:00;4.70;;;4.25;;
46000;SDS011;72226;48.272;11.180;2023-10-19T12:20:29;6.05;;;4.50;;
46000;SDS011;72226;48.272;11.180;2023-10-19T12:22:57;5.15;;;4.65;;
46000;SDS011;72226;48.272;11.180;2023-10-19T12:25:24;6.78;;;4.90;;
46000;SDS011;72226;48.272;11.180;2023-10-19T12:27:57;7.13;;;5.68;;
46000;SDS011;72226;48.272;11.180;2023-10-19T12:30:23;5.95;;;5.43;;
46000;SDS011;72226;48.272;11.180;2023-10-19T12:32:51;9.50;;;4.95;;
46000;SDS011;72226;48.272;11.180;2023-10-19T12:35:17;7.53;;;6.82;;
46000;SDS011;72226;48.272;11.180;2023-10-19T12:37:48;11.77;;;6.50;;
46000;SDS011;72226;48.272;11.180;2023-10-19T12:40:16;13.88;;;5.55;;
46000;SDS011;72226;48.272;11.180;2023-10-19T12:42:51;5.90;;;5.40;;
46000;SDS011;72226;48.272;11.180;2023-10-19T12:45:21;7.88;;;4.40;;
46000;SDS011;72226;48.272;11.180;2023-10-19T12:47:47;4.90;;;4.28;;
46000;SDS011;72226;48.272;11.180;2023-10-19T12:50:13;6.75;;;4.40;;
46000;SDS011;72226;48.272;11.180;2023-10-19T12:52:39;7.72;;;3.92;;
46000;SDS011;72226;48.272;11.180;2023-10-19T12:55:05;7.13;;;5.50;;
46000;SDS011;72226;48.272;11.180;2023-10-19T12:57:32;12.07;;;7.57;;
46000;SDS011;72226;48.272;11.180;2023-10-19T12:59:58;9.40;;;6.18;;
46000;SDS011;72226;48.272;11.180;2023-10-19T13:02:44;7.13;;;5.75;;
46000;SDS011;72226;48.272;11.180;2023-10-19T13:05:09;6.32;;;5.80;;
46000;SDS011;72226;48.272;11.180;2023-10-19T13:07:38;6.75;;;5.50;;
46000;SDS011;72226;48.272;11.180;2023-10-19T13:10:04;7.70;;;5.95;;
46000;SDS011;72226;48.272;11.180;2023-10-19T13:12:29;5.90;;;5.25;;
46000;SDS011;72226;48.272;11.180;2023-10-19T13:14:55;6.38;;;5.70;;
46000;SDS011;72226;48.272;11.180;2023-10-19T13:17:21;5.93;;;5.00;;
46000;SDS011;72226;48.272;11.180;2023-10-19T13:19:46;7.88;;;6.13;;
46000;SDS011;72226;48.272;11.180;2023-10-19T13:22:12;6.88;;;6.13;;
46000;SDS011;72226;48.272;11.180;2023-10-19T13:24:39;7.10;;;6.40;;
46000;SDS011;72226;48.272;11.180;2023-10-19T13:27:07;7.05;;;5.35;;
46000;SDS011;72226;48.272;11.180;2023-10-19T13:29:33;9.13;;;6.90;;
46000;SDS011;72226;48.272;11.180;2023-10-19T13:32:02;8.95;;;6.47;;
46000;SDS011;72226;48.272;11.180;2023-10-19T13:34:28;6.45;;;5.85;;
46000;SDS011;72226;48.272;11.180;2023-10-19T13:36:53;7.43;;;6.65;;
46000;SDS011;72226;48.272;11.180;2023-10-19T13:39:21;12.85;;;5.93;;
46000;SDS011;72226;48.272;11.180;2023-10-19T13:41:50;8.13;;;6.10;;
46000;SDS011;72226;48.272;11.180;2023-10-19T13:44:17;6.93;;;5.68;;
46000;SDS011;72226;48.272;11.180;2023-10-19T13:46:45;5.63;;;4.82;;
46000;SDS011;72226;48.272;11.180;2023-10-19T13:49:11;7.07;;;5.90;;
46000;SDS011;72226;48.272;11.180;2023-10-19T13:51:36;7.63;;;5.07;;
46000;SDS011;72226;48.272;11.180;2023-10-19T13:54:02;7.97;;;6.30;;
46000;SDS011;72226;48.272;11.180;2023-10-19T13:56:27;7.68;;;6.78;;
46000;SDS011;72226;48.272;11.180;2023-10-19T13:58:53;7.15;;;5.93;;
46000;SDS011;72226;48.272;11.180;2023-10-19T14:01:19;8.48;;;6.63;;
46000;SDS011;72226;48.272;11.180;2023-10-19T14:03:50;6.90;;;6.28;;
46000;SDS011;72226;48.272;11.180;2023-10-19T14:06:16;6.50;;;5.60;;
46000;SDS011;72226;48.272;11.180;2023-10-19T14:08:42;7.15;;;5.82;;
46000;SDS011;72226;48.272;11.180;2023-10-19T14:11:07;6.63;;;5.85;;
46000;SDS011;72226;48.272;11.180;2023-10-19T14:13:33;6.95;;;6.25;;
46000;SDS011;72226;48.272;11.180;2023-10-19T14:16:04;6.88;;;6.18;;
46000;SDS011;72226;48.272;11.180;2023-10-19T14:18:30;10.85;;;7.22;;
46000;SDS011;72226;48.272;11.180;2023-10-19T14:20:56;8.05;;;7.18;;
46000;SDS011;72226;48.272;11.180;2023-10-19T14:23:21;8.10;;;6.72;;
46000;SDS011;72226;48.272;11.180;2023-10-19T14:25:49;10.43;;;7.60;;
46000;SDS011;72226;48.272;11.180;2023-10-19T14:28:15;8.48;;;7.68;;
46000;SDS011;72226;48.272;11.180;2023-10-19T14:30:40;9.82;;;8.32;;
46000;SDS011;72226;48.272;11.180;2023-10-19T14:33:05;12.52;;;10.05;;
46000;SDS011;72226;48.272;11.180;2023-10-19T14:35:35;10.50;;;9.50;;
46000;SDS011;72226;48.272;11.180;2023-10-19T14:38:04;11.43;;;10.35;;
46000;SDS011;72226;48.272;11.180;2023-10-19T14:40:31;11.60;;;10.43;;
46000;SDS011;72226;48.272;11.180;2023-10-19T14:42:57;12.68;;;11.50;;
46000;SDS011;72226;48.272;11.180;2023-10-19T14:45:26;12.27;;;10.98;;
46000;SDS011;72226;48.272;11.180;2023-10-19T14:47:55;13.57;;;10.10;;